createdAt,value
2022-12-05T00:00:26.269Z,17.95
2022-12-05T00:05:30.150Z,17.40
2022-12-05T00:10:31.795Z,17.27
2022-12-05T00:15:41.180Z,15.63
2022-12-05T00:20:51.296Z,15.11
2022-12-05T00:25:52.865Z,16.52
2022-12-05T00:30:59.536Z,16.20
2022-12-05T00:36:06.496Z,16.52
2022-12-05T00:41:11.527Z,13.80
2022-12-05T00:46:16.937Z,15.40
2022-12-05T00:51:28.377Z,17.20
2022-12-05T00:56:31.041Z,17.50
2022-12-05T01:01:38.539Z,14.52
2022-12-05T01:06:41.099Z,16.50
2022-12-05T01:11:43.489Z,15.20
2022-12-05T01:16:47.485Z,14.50
2022-12-05T01:21:49.806Z,15.05
2022-12-05T01:26:52.302Z,14.45
2022-12-05T01:31:54.826Z,11.50
2022-12-05T01:36:56.562Z,14.77
2022-12-05T01:41:58.276Z,15.18
2022-12-05T01:46:59.913Z,14.52
2022-12-05T01:52:18.927Z,13.27
2022-12-05T01:57:20.658Z,13.45
2022-12-05T02:02:22.735Z,15.23
2022-12-05T02:07:24.776Z,14.23
2022-12-05T02:12:26.843Z,14.73
2022-12-05T02:17:54.114Z,14.70
2022-12-05T02:23:17.805Z,13.60
2022-12-05T02:28:44.482Z,12.63
2022-12-05T02:33:50.640Z,13.23
2022-12-05T02:39:12.658Z,14.57
2022-12-05T02:44:23.049Z,14.55
2022-12-05T02:49:30.482Z,13.48
2022-12-05T02:54:41.804Z,13.73
2022-12-05T02:59:43.444Z,13.25
2022-12-05T03:04:45.117Z,12.98
2022-12-05T03:09:59.394Z,14.55
2022-12-05T03:15:07.674Z,13.45
2022-12-05T03:20:15.315Z,13.63
2022-12-05T03:25:17.734Z,13.25
2022-12-05T03:30:22.666Z,10.50
2022-12-05T03:35:43.578Z,12.90
2022-12-05T03:40:54.581Z,11.82
2022-12-05T03:46:00.840Z,11.10
2022-12-05T03:51:06.518Z,12.23
2022-12-05T03:56:13.450Z,12.73
2022-12-05T04:01:18.425Z,12.90
2022-12-05T04:06:26.759Z,12.15
2022-12-05T04:11:33.209Z,10.93
2022-12-05T04:17:05.717Z,12.93
2022-12-05T04:22:07.486Z,12.02
2022-12-05T04:27:27.956Z,14.25
2022-12-05T04:37:39.576Z,15.35
2022-12-05T04:42:43.170Z,15.65
2022-12-05T04:47:51.080Z,14.30
2022-12-05T04:52:57.032Z,14.27
2022-12-05T04:58:11.944Z,16.30
2022-12-05T05:03:24.872Z,16.60
2022-12-05T05:08:29.108Z,16.30
2022-12-05T05:13:30.685Z,15.32
2022-12-05T05:18:32.729Z,14.90
2022-12-05T05:23:34.586Z,13.23
2022-12-05T05:28:36.317Z,14.15
2022-12-05T05:33:38.654Z,14.60
2022-12-05T05:38:43.354Z,12.88
2022-12-05T05:43:45.899Z,12.93
2022-12-05T05:48:47.943Z,11.70
2022-12-05T05:53:49.802Z,12.48
2022-12-05T05:59:01.980Z,11.02
2022-12-05T06:04:03.799Z,8.82
2022-12-05T06:09:07.347Z,9.80
2022-12-05T06:14:09.620Z,9.40
2022-12-05T06:19:11.295Z,9.52
2022-12-05T06:24:12.983Z,5.45
2022-12-05T06:29:14.640Z,7.03
2022-12-05T06:34:16.440Z,8.85
2022-12-05T06:39:18.210Z,9.25
2022-12-05T06:44:21.704Z,9.38
2022-12-05T06:49:30.753Z,9.38
2022-12-05T06:54:34.499Z,8.20
2022-12-05T06:59:36.449Z,7.05
2022-12-05T07:04:38.075Z,8.07
2022-12-05T07:09:51.616Z,7.18
2022-12-05T07:14:53.306Z,7.05
2022-12-05T07:19:54.990Z,6.30
2022-12-05T07:24:56.725Z,6.13
2022-12-05T07:29:58.700Z,6.90
2022-12-05T07:35:00.605Z,6.35
2022-12-05T07:40:02.309Z,6.22
2022-12-05T07:45:04.515Z,6.07
2022-12-05T07:50:07.063Z,5.75
2022-12-05T07:55:09.121Z,5.88
2022-12-05T08:00:11.411Z,6.07
2022-12-05T08:05:15.979Z,5.75
2022-12-05T08:10:17.715Z,5.60
2022-12-05T08:15:19.310Z,5.63
2022-12-05T08:20:20.958Z,5.38
2022-12-05T08:25:22.617Z,5.47
2022-12-05T08:30:24.312Z,5.72
2022-12-05T08:35:26.286Z,5.70
2022-12-05T08:40:27.959Z,6.05
2022-12-05T08:45:29.618Z,4.78
2022-12-05T08:50:31.185Z,5.07
2022-12-05T08:55:34.940Z,5.05
2022-12-05T09:00:36.589Z,4.85
2022-12-05T09:05:38.812Z,5.47
2022-12-05T09:10:40.533Z,5.43
2022-12-05T09:15:42.289Z,5.50
2022-12-05T09:20:44.548Z,5.55
2022-12-05T09:25:58.109Z,5.85
2022-12-05T09:31:02.160Z,4.40
2022-12-05T09:36:33.323Z,5.82
2022-12-05T09:42:07.976Z,5.93
2022-12-05T09:47:36.473Z,6.00
2022-12-05T09:52:41.565Z,5.35
2022-12-05T09:57:51.750Z,5.20
2022-12-05T10:03:05.318Z,4.75
2022-12-05T10:08:26.482Z,8.10
2022-12-05T10:13:46.040Z,5.65
2022-12-05T10:18:53.702Z,4.53
2022-12-05T10:24:02.882Z,4.80
2022-12-05T10:29:14.928Z,5.40
2022-12-05T10:34:26.981Z,5.57
2022-12-05T10:39:28.695Z,5.70
2022-12-05T10:44:32.147Z,5.53
2022-12-05T10:49:34.513Z,5.60
2022-12-05T10:54:44.384Z,6.03
2022-12-05T10:59:47.645Z,5.97
2022-12-05T11:04:51.159Z,5.43
2022-12-05T11:09:54.534Z,6.18
2022-12-05T11:15:25.586Z,5.28
2022-12-05T11:20:27.341Z,4.20
2022-12-05T11:25:32.910Z,4.90
2022-12-05T11:30:34.720Z,5.10
2022-12-05T11:35:37.941Z,4.88
2022-12-05T11:41:04.387Z,5.30
2022-12-05T11:46:22.252Z,5.55
2022-12-05T11:52:04.100Z,4.55
2022-12-05T11:57:34.077Z,5.70
2022-12-05T12:03:03.024Z,6.20
2022-12-05T12:08:28.456Z,8.20
2022-12-05T12:13:36.035Z,6.63
2022-12-05T12:18:53.298Z,7.97
2022-12-05T12:24:19.094Z,6.95
2022-12-05T12:29:20.650Z,7.22
2022-12-05T12:34:46.226Z,7.57
2022-12-05T12:40:13.186Z,7.00
2022-12-05T12:45:46.084Z,6.72
2022-12-05T12:50:52.821Z,5.95
2022-12-05T12:56:06.605Z,5.93
2022-12-05T13:01:36.406Z,6.60
2022-12-05T13:06:49.575Z,7.10
2022-12-05T13:11:53.315Z,6.45
2022-12-05T13:16:58.187Z,6.63
2022-12-05T13:22:00.813Z,6.13
2022-12-05T13:27:06.939Z,6.78
2022-12-05T13:32:36.300Z,6.32
2022-12-05T13:38:05.275Z,5.85
2022-12-05T13:43:07.530Z,4.60
2022-12-05T13:48:26.450Z,6.65
2022-12-05T13:53:39.477Z,6.05
2022-12-05T13:58:43.915Z,6.32
2022-12-05T14:03:48.663Z,6.90
2022-12-05T14:08:52.686Z,5.50
2022-12-05T14:13:58.007Z,5.38
2022-12-05T14:19:33.893Z,5.40
2022-12-05T14:24:50.251Z,4.57
2022-12-05T14:30:16.183Z,4.68
2022-12-05T14:35:25.493Z,5.70
2022-12-05T14:40:40.727Z,4.97
2022-12-05T14:45:58.333Z,4.53
2022-12-05T14:51:02.913Z,4.47
2022-12-05T14:56:16.281Z,5.07
2022-12-05T15:01:28.748Z,5.35
2022-12-05T15:06:33.536Z,4.93
2022-12-05T15:11:37.972Z,5.13
2022-12-05T15:16:43.811Z,5.35
2022-12-05T15:21:56.783Z,5.57
2022-12-05T15:27:03.569Z,4.95
2022-12-05T15:32:11.330Z,4.50
2022-12-05T15:37:28.358Z,4.93
2022-12-05T15:42:35.767Z,5.22
2022-12-05T15:47:38.977Z,5.70
2022-12-05T15:52:53.927Z,5.90
2022-12-05T15:58:13.043Z,6.18
2022-12-05T16:03:38.794Z,6.22
2022-12-05T16:08:47.893Z,10.35
2022-12-05T16:13:58.418Z,8.30
2022-12-05T16:19:05.507Z,5.85
2022-12-05T16:24:30.276Z,5.65
2022-12-05T16:29:35.033Z,5.85
2022-12-05T16:34:36.803Z,5.82
2022-12-05T16:39:38.978Z,5.28
2022-12-05T16:44:46.387Z,5.97
2022-12-05T16:49:48.084Z,6.35
2022-12-05T16:54:52.212Z,5.18
2022-12-05T16:59:56.929Z,6.45
2022-12-05T17:05:03.135Z,5.93
2022-12-05T17:10:05.696Z,5.20
2022-12-05T17:15:15.255Z,6.32
2022-12-05T17:20:18.453Z,4.53
2022-12-05T17:25:33.768Z,4.40
2022-12-05T17:30:35.452Z,4.93
2022-12-05T17:35:37.846Z,6.60
2022-12-05T17:40:40.306Z,5.32
2022-12-05T17:45:43.271Z,6.43
2022-12-05T17:50:47.985Z,6.28
2022-12-05T17:55:49.735Z,5.32
2022-12-05T18:00:51.378Z,5.40
2022-12-05T18:05:53.019Z,5.65
2022-12-05T18:10:56.206Z,4.82
2022-12-05T18:15:58.252Z,5.75
2022-12-05T18:21:08.262Z,6.40
2022-12-05T18:26:10.640Z,6.20
2022-12-05T18:31:17.124Z,4.00
2022-12-05T18:36:21.070Z,4.95
2022-12-05T18:41:23.833Z,4.25
2022-12-05T18:46:25.540Z,5.35
2022-12-05T18:51:27.949Z,5.93
2022-12-05T18:56:34.723Z,4.43
2022-12-05T19:01:38.851Z,5.13
2022-12-05T19:06:43.285Z,5.28
2022-12-05T19:11:47.800Z,6.25
2022-12-05T19:16:58.008Z,5.75
2022-12-05T19:22:02.420Z,5.03
2022-12-05T19:27:04.235Z,7.38
2022-12-05T19:32:06.065Z,5.45
2022-12-05T19:37:07.833Z,5.82
2022-12-05T19:42:09.525Z,6.07
2022-12-05T19:47:11.272Z,5.15
2022-12-05T19:52:17.773Z,4.97
2022-12-05T19:57:19.846Z,5.50
2022-12-05T20:02:24.116Z,5.28
2022-12-05T20:07:25.859Z,5.22
2022-12-05T20:12:27.489Z,5.75
2022-12-05T20:17:29.133Z,5.63
2022-12-05T20:22:31.027Z,4.82
2022-12-05T20:27:34.111Z,4.82
2022-12-05T20:32:35.761Z,4.70
2022-12-05T20:37:37.647Z,5.00
2022-12-05T20:42:44.969Z,4.60
2022-12-05T20:47:48.278Z,4.50
2022-12-05T20:52:49.939Z,4.93
2022-12-05T20:57:53.699Z,4.57
2022-12-05T21:02:56.727Z,4.53
2022-12-05T21:07:58.472Z,5.93
2022-12-05T21:13:00.117Z,6.07
2022-12-05T21:18:02.093Z,5.57
2022-12-05T21:23:04.065Z,5.13
2022-12-05T21:28:05.746Z,4.88
2022-12-05T21:33:07.435Z,5.55
2022-12-05T21:38:09.085Z,4.82
2022-12-05T21:43:10.726Z,4.10
2022-12-05T21:48:12.374Z,3.58
2022-12-05T21:53:14.189Z,4.28
2022-12-05T21:58:15.909Z,5.65
2022-12-05T22:03:17.579Z,4.32
2022-12-05T22:08:19.324Z,4.85
2022-12-05T22:13:21.039Z,4.15
2022-12-05T22:18:22.973Z,3.15
2022-12-05T22:23:25.261Z,7.55
2022-12-05T22:28:28.254Z,3.88
2022-12-05T22:33:31.682Z,2.42
2022-12-05T22:38:39.095Z,3.28
2022-12-05T22:43:42.087Z,2.80
2022-12-05T22:48:44.479Z,3.28
2022-12-05T22:53:49.724Z,3.28
2022-12-05T22:58:59.826Z,3.03
2022-12-05T23:04:06.418Z,2.70
2022-12-05T23:09:10.104Z,3.35
2022-12-05T23:14:11.780Z,3.25
2022-12-05T23:19:13.410Z,3.42
2022-12-05T23:24:15.036Z,2.95
2022-12-05T23:29:16.649Z,3.20
2022-12-05T23:34:18.364Z,3.35
2022-12-05T23:39:20.169Z,3.40
2022-12-05T23:44:22.734Z,3.33
2022-12-05T23:49:24.368Z,3.40
2022-12-05T23:54:26.105Z,3.60
2022-12-05T23:59:27.765Z,3.50
